sensor_id;sensor_type;location;lat;lon;timestamp;P1;durP1;ratioP1;P2;durP2;ratioP2
33254;SDS011;19623;52.482;9.762;2022-09-17T00:00:42;347.27;;;314.02;;
33254;SDS011;19623;52.482;9.762;2022-09-17T00:03:10;342.63;;;308.92;;
33254;SDS011;19623;52.482;9.762;2022-09-17T00:05:36;353.70;;;320.00;;
33254;SDS011;19623;52.482;9.762;2022-09-17T00:08:03;345.60;;;311.98;;
33254;SDS011;19623;52.482;9.762;2022-09-17T00:10:30;357.52;;;323.05;;
33254;SDS011;19623;52.482;9.762;2022-09-17T00:12:56;350.23;;;316.60;;
33254;SDS011;19623;52.482;9.762;2022-09-17T00:15:22;345.77;;;312.60;;
33254;SDS011;19623;52.482;9.762;2022-09-17T00:17:52;362.10;;;327.17;;
33254;SDS011;19623;52.482;9.762;2022-09-17T00:20:19;349.35;;;314.77;;
33254;SDS011;19623;52.482;9.762;2022-09-17T00:22:45;341.63;;;306.55;;
33254;SDS011;19623;52.482;9.762;2022-09-17T00:25:11;350.42;;;314.98;;
33254;SDS011;19623;52.482;9.762;2022-09-17T00:27:36;357.50;;;321.25;;
33254;SDS011;19623;52.482;9.762;2022-09-17T00:30:02;351.15;;;316.98;;
33254;SDS011;19623;52.482;9.762;2022-09-17T00:32:28;355.05;;;319.25;;
33254;SDS011;19623;52.482;9.762;2022-09-17T00:34:54;359.05;;;323.00;;
33254;SDS011;19623;52.482;9.762;2022-09-17T00:37:20;338.27;;;304.40;;
33254;SDS011;19623;52.482;9.762;2022-09-17T00:39:46;342.55;;;308.77;;
33254;SDS011;19623;52.482;9.762;2022-09-17T00:42:12;353.85;;;317.88;;
33254;SDS011;19623;52.482;9.762;2022-09-17T00:44:52;342.92;;;309.13;;
33254;SDS011;19623;52.482;9.762;2022-09-17T00:49:45;346.33;;;310.60;;
33254;SDS011;19623;52.482;9.762;2022-09-17T00:52:14;352.55;;;317.05;;
33254;SDS011;19623;52.482;9.762;2022-09-17T00:54:54;351.92;;;316.90;;
33254;SDS011;19623;52.482;9.762;2022-09-17T00:57:28;354.10;;;318.58;;
33254;SDS011;19623;52.482;9.762;2022-09-17T00:59:55;354.08;;;318.38;;
33254;SDS011;19623;52.482;9.762;2022-09-17T01:02:21;358.35;;;321.73;;
33254;SDS011;19623;52.482;9.762;2022-09-17T01:04:47;352.65;;;316.30;;
33254;SDS011;19623;52.482;9.762;2022-09-17T01:07:26;350.15;;;315.02;;
33254;SDS011;19623;52.482;9.762;2022-09-17T01:24:49;345.00;;;308.55;;
33254;SDS011;19623;52.482;9.762;2022-09-17T01:28:06;327.23;;;293.23;;
33254;SDS011;19623;52.482;9.762;2022-09-17T01:33:12;337.52;;;303.25;;
33254;SDS011;19623;52.482;9.762;2022-09-17T01:41:31;331.27;;;297.23;;
33254;SDS011;19623;52.482;9.762;2022-09-17T01:44:22;332.60;;;297.42;;
33254;SDS011;19623;52.482;9.762;2022-09-17T01:47:07;330.92;;;296.15;;
33254;SDS011;19623;52.482;9.762;2022-09-17T01:49:37;332.98;;;298.00;;
33254;SDS011;19623;52.482;9.762;2022-09-17T01:52:03;336.23;;;300.95;;
33254;SDS011;19623;52.482;9.762;2022-09-17T01:54:48;319.02;;;284.60;;
33254;SDS011;19623;52.482;9.762;2022-09-17T01:57:18;336.27;;;300.45;;
33254;SDS011;19623;52.482;9.762;2022-09-17T02:00:15;328.15;;;293.85;;
33254;SDS011;19623;52.482;9.762;2022-09-17T02:05:09;335.10;;;298.55;;
33254;SDS011;19623;52.482;9.762;2022-09-17T02:07:42;331.35;;;295.92;;
33254;SDS011;19623;52.482;9.762;2022-09-17T02:10:16;326.88;;;292.88;;
33254;SDS011;19623;52.482;9.762;2022-09-17T02:12:50;323.95;;;288.77;;
33254;SDS011;19623;52.482;9.762;2022-09-17T02:15:30;319.17;;;283.48;;
33254;SDS011;19623;52.482;9.762;2022-09-17T02:18:03;302.83;;;271.20;;
33254;SDS011;19623;52.482;9.762;2022-09-17T02:20:37;325.05;;;291.63;;
33254;SDS011;19623;52.482;9.762;2022-09-17T02:23:26;328.67;;;293.20;;
33254;SDS011;19623;52.482;9.762;2022-09-17T02:26:07;333.50;;;295.92;;
33254;SDS011;19623;52.482;9.762;2022-09-17T02:31:04;309.10;;;276.60;;
33254;SDS011;19623;52.482;9.762;2022-09-17T02:33:30;325.48;;;290.63;;
33254;SDS011;19623;52.482;9.762;2022-09-17T02:35:58;307.05;;;275.33;;
33254;SDS011;19623;52.482;9.762;2022-09-17T02:38:24;310.85;;;278.02;;
33254;SDS011;19623;52.482;9.762;2022-09-17T02:41:03;314.85;;;281.52;;
33254;SDS011;19623;52.482;9.762;2022-09-17T02:54:40;295.75;;;264.95;;
33254;SDS011;19623;52.482;9.762;2022-09-17T02:57:21;307.15;;;274.75;;
33254;SDS011;19623;52.482;9.762;2022-09-17T02:59:55;307.85;;;273.85;;
33254;SDS011;19623;52.482;9.762;2022-09-17T03:02:24;303.02;;;269.40;;
33254;SDS011;19623;52.482;9.762;2022-09-17T03:05:11;305.08;;;271.40;;
33254;SDS011;19623;52.482;9.762;2022-09-17T03:07:38;312.83;;;277.48;;
33254;SDS011;19623;52.482;9.762;2022-09-17T03:10:04;303.33;;;270.85;;
33254;SDS011;19623;52.482;9.762;2022-09-17T03:12:30;312.42;;;279.23;;
33254;SDS011;19623;52.482;9.762;2022-09-17T03:14:56;316.10;;;282.27;;
33254;SDS011;19623;52.482;9.762;2022-09-17T03:17:22;309.60;;;276.45;;
33254;SDS011;19623;52.482;9.762;2022-09-17T03:19:47;308.63;;;275.05;;
33254;SDS011;19623;52.482;9.762;2022-09-17T03:22:13;306.95;;;273.45;;
33254;SDS011;19623;52.482;9.762;2022-09-17T03:24:39;298.73;;;262.42;;
33254;SDS011;19623;52.482;9.762;2022-09-17T03:27:04;308.13;;;275.13;;
33254;SDS011;19623;52.482;9.762;2022-09-17T03:29:30;312.33;;;269.35;;
33254;SDS011;19623;52.482;9.762;2022-09-17T03:31:56;315.52;;;266.27;;
33254;SDS011;19623;52.482;9.762;2022-09-17T03:34:21;315.70;;;277.70;;
33254;SDS011;19623;52.482;9.762;2022-09-17T03:36:47;320.33;;;274.88;;
33254;SDS011;19623;52.482;9.762;2022-09-17T03:39:13;310.52;;;273.60;;
33254;SDS011;19623;52.482;9.762;2022-09-17T03:41:39;314.95;;;279.25;;
33254;SDS011;19623;52.482;9.762;2022-09-17T03:44:04;311.90;;;272.10;;
33254;SDS011;19623;52.482;9.762;2022-09-17T03:46:30;336.67;;;276.25;;
33254;SDS011;19623;52.482;9.762;2022-09-17T03:48:56;321.73;;;267.77;;
33254;SDS011;19623;52.482;9.762;2022-09-17T03:51:21;328.52;;;277.52;;
33254;SDS011;19623;52.482;9.762;2022-09-17T03:53:47;300.73;;;261.45;;
33254;SDS011;19623;52.482;9.762;2022-09-17T03:56:13;316.60;;;264.10;;
33254;SDS011;19623;52.482;9.762;2022-09-17T03:58:38;319.58;;;275.42;;
33254;SDS011;19623;52.482;9.762;2022-09-17T04:01:04;311.67;;;267.17;;
33254;SDS011;19623;52.482;9.762;2022-09-17T04:03:30;315.42;;;265.30;;
33254;SDS011;19623;52.482;9.762;2022-09-17T04:05:56;326.55;;;265.92;;
33254;SDS011;19623;52.482;9.762;2022-09-17T04:08:22;334.90;;;276.77;;
33254;SDS011;19623;52.482;9.762;2022-09-17T04:10:48;326.40;;;272.27;;
33254;SDS011;19623;52.482;9.762;2022-09-17T04:13:14;324.05;;;273.27;;
33254;SDS011;19623;52.482;9.762;2022-09-17T04:15:41;325.45;;;270.50;;
33254;SDS011;19623;52.482;9.762;2022-09-17T04:18:07;330.17;;;270.10;;
33254;SDS011;19623;52.482;9.762;2022-09-17T04:20:32;327.00;;;280.30;;
33254;SDS011;19623;52.482;9.762;2022-09-17T04:22:58;336.55;;;282.27;;
33254;SDS011;19623;52.482;9.762;2022-09-17T04:25:24;325.08;;;276.42;;
33254;SDS011;19623;52.482;9.762;2022-09-17T04:27:49;320.25;;;277.52;;
33254;SDS011;19623;52.482;9.762;2022-09-17T04:30:15;297.95;;;265.50;;
33254;SDS011;19623;52.482;9.762;2022-09-17T04:32:42;304.52;;;272.02;;
33254;SDS011;19623;52.482;9.762;2022-09-17T04:35:08;307.55;;;270.30;;
33254;SDS011;19623;52.482;9.762;2022-09-17T04:37:34;310.52;;;268.63;;
33254;SDS011;19623;52.482;9.762;2022-09-17T04:40:01;321.70;;;274.50;;
33254;SDS011;19623;52.482;9.762;2022-09-17T04:42:27;325.00;;;273.60;;
33254;SDS011;19623;52.482;9.762;2022-09-17T04:44:53;318.48;;;266.30;;
33254;SDS011;19623;52.482;9.762;2022-09-17T04:47:18;320.40;;;272.27;;
33254;SDS011;19623;52.482;9.762;2022-09-17T04:49:44;321.83;;;273.48;;
33254;SDS011;19623;52.482;9.762;2022-09-17T04:52:10;329.73;;;272.20;;
33254;SDS011;19623;52.482;9.762;2022-09-17T04:54:35;340.92;;;283.55;;
33254;SDS011;19623;52.482;9.762;2022-09-17T04:57:01;324.85;;;279.35;;
33254;SDS011;19623;52.482;9.762;2022-09-17T04:59:27;335.85;;;282.45;;
33254;SDS011;19623;52.482;9.762;2022-09-17T05:01:52;337.17;;;284.02;;
33254;SDS011;19623;52.482;9.762;2022-09-17T05:04:19;336.10;;;288.40;;
33254;SDS011;19623;52.482;9.762;2022-09-17T05:06:45;314.27;;;280.38;;
33254;SDS011;19623;52.482;9.762;2022-09-17T05:09:10;313.20;;;277.05;;
33254;SDS011;19623;52.482;9.762;2022-09-17T05:11:36;318.45;;;275.35;;
33254;SDS011;19623;52.482;9.762;2022-09-17T05:14:02;319.15;;;280.30;;
33254;SDS011;19623;52.482;9.762;2022-09-17T05:16:27;315.10;;;278.92;;
33254;SDS011;19623;52.482;9.762;2022-09-17T05:18:56;323.17;;;275.63;;
33254;SDS011;19623;52.482;9.762;2022-09-17T05:21:22;325.35;;;285.92;;
33254;SDS011;19623;52.482;9.762;2022-09-17T05:23:48;329.65;;;285.70;;
33254;SDS011;19623;52.482;9.762;2022-09-17T05:26:13;331.38;;;281.98;;
33254;SDS011;19623;52.482;9.762;2022-09-17T05:28:39;336.33;;;279.98;;
33254;SDS011;19623;52.482;9.762;2022-09-17T05:31:05;337.58;;;284.52;;
33254;SDS011;19623;52.482;9.762;2022-09-17T05:33:31;330.42;;;284.58;;
33254;SDS011;19623;52.482;9.762;2022-09-17T05:35:57;342.27;;;282.10;;
33254;SDS011;19623;52.482;9.762;2022-09-17T05:38:24;340.73;;;280.42;;
33254;SDS011;19623;52.482;9.762;2022-09-17T05:40:50;331.50;;;280.00;;
33254;SDS011;19623;52.482;9.762;2022-09-17T05:43:16;338.13;;;288.10;;
33254;SDS011;19623;52.482;9.762;2022-09-17T05:45:42;347.60;;;288.40;;
33254;SDS011;19623;52.482;9.762;2022-09-17T05:48:09;348.35;;;294.13;;
33254;SDS011;19623;52.482;9.762;2022-09-17T05:50:37;345.60;;;284.67;;
33254;SDS011;19623;52.482;9.762;2022-09-17T05:53:04;333.83;;;285.92;;
33254;SDS011;19623;52.482;9.762;2022-09-17T05:55:31;336.33;;;293.35;;
33254;SDS011;19623;52.482;9.762;2022-09-17T05:57:59;336.45;;;284.55;;
33254;SDS011;19623;52.482;9.762;2022-09-17T06:00:25;300.40;;;269.48;;
33254;SDS011;19623;52.482;9.762;2022-09-17T06:02:54;311.33;;;279.70;;
33254;SDS011;19623;52.482;9.762;2022-09-17T06:05:21;310.48;;;276.92;;
33254;SDS011;19623;52.482;9.762;2022-09-17T06:07:47;309.63;;;276.83;;
33254;SDS011;19623;52.482;9.762;2022-09-17T06:10:13;309.15;;;276.45;;
33254;SDS011;19623;52.482;9.762;2022-09-17T06:12:39;321.25;;;273.38;;
33254;SDS011;19623;52.482;9.762;2022-09-17T06:15:04;316.85;;;281.02;;
33254;SDS011;19623;52.482;9.762;2022-09-17T06:17:34;315.75;;;277.73;;
33254;SDS011;19623;52.482;9.762;2022-09-17T06:20:00;321.17;;;281.85;;
33254;SDS011;19623;52.482;9.762;2022-09-17T06:22:28;323.35;;;283.15;;
33254;SDS011;19623;52.482;9.762;2022-09-17T06:24:54;328.77;;;283.77;;
33254;SDS011;19623;52.482;9.762;2022-09-17T06:27:19;320.50;;;280.90;;
33254;SDS011;19623;52.482;9.762;2022-09-17T06:29:45;324.08;;;276.20;;
33254;SDS011;19623;52.482;9.762;2022-09-17T06:32:10;338.95;;;286.73;;
33254;SDS011;19623;52.482;9.762;2022-09-17T06:34:37;328.50;;;282.40;;
33254;SDS011;19623;52.482;9.762;2022-09-17T06:37:03;327.92;;;275.23;;
33254;SDS011;19623;52.482;9.762;2022-09-17T06:39:29;291.90;;;262.05;;
33254;SDS011;19623;52.482;9.762;2022-09-17T06:41:55;303.42;;;271.35;;
33254;SDS011;19623;52.482;9.762;2022-09-17T06:44:21;301.50;;;269.27;;
33254;SDS011;19623;52.482;9.762;2022-09-17T06:46:49;297.08;;;265.88;;
33254;SDS011;19623;52.482;9.762;2022-09-17T06:49:16;292.23;;;259.10;;
33254;SDS011;19623;52.482;9.762;2022-09-17T06:51:44;306.20;;;271.15;;
33254;SDS011;19623;52.482;9.762;2022-09-17T06:54:10;305.83;;;272.98;;
33254;SDS011;19623;52.482;9.762;2022-09-17T06:56:36;309.88;;;276.48;;
33254;SDS011;19623;52.482;9.762;2022-09-17T06:59:02;306.90;;;269.55;;
33254;SDS011;19623;52.482;9.762;2022-09-17T07:01:27;310.38;;;273.58;;
33254;SDS011;19623;52.482;9.762;2022-09-17T07:03:53;308.05;;;268.63;;
33254;SDS011;19623;52.482;9.762;2022-09-17T07:06:19;318.35;;;280.20;;
33254;SDS011;19623;52.482;9.762;2022-09-17T07:08:45;324.13;;;279.45;;
33254;SDS011;19623;52.482;9.762;2022-09-17T07:11:11;331.88;;;292.42;;
33254;SDS011;19623;52.482;9.762;2022-09-17T07:13:37;336.95;;;294.20;;
33254;SDS011;19623;52.482;9.762;2022-09-17T07:16:03;329.13;;;287.58;;
33254;SDS011;19623;52.482;9.762;2022-09-17T07:18:30;338.67;;;301.95;;
33254;SDS011;19623;52.482;9.762;2022-09-17T07:21:00;342.23;;;301.45;;
33254;SDS011;19623;52.482;9.762;2022-09-17T07:23:31;336.60;;;300.08;;
33254;SDS011;19623;52.482;9.762;2022-09-17T07:25:59;334.55;;;299.20;;
33254;SDS011;19623;52.482;9.762;2022-09-17T07:28:28;325.88;;;290.80;;
33254;SDS011;19623;52.482;9.762;2022-09-17T07:30:55;339.60;;;303.23;;
33254;SDS011;19623;52.482;9.762;2022-09-17T07:33:22;341.85;;;305.08;;
33254;SDS011;19623;52.482;9.762;2022-09-17T07:35:54;339.70;;;303.85;;
33254;SDS011;19623;52.482;9.762;2022-09-17T07:38:22;345.88;;;310.50;;
33254;SDS011;19623;52.482;9.762;2022-09-17T07:40:55;347.08;;;311.52;;
33254;SDS011;19623;52.482;9.762;2022-09-17T07:43:22;344.25;;;308.35;;
33254;SDS011;19623;52.482;9.762;2022-09-17T07:45:52;339.90;;;307.40;;
33254;SDS011;19623;52.482;9.762;2022-09-17T07:48:19;341.05;;;306.63;;
33254;SDS011;19623;52.482;9.762;2022-09-17T07:50:45;350.65;;;316.40;;
33254;SDS011;19623;52.482;9.762;2022-09-17T07:53:11;345.77;;;311.75;;
33254;SDS011;19623;52.482;9.762;2022-09-17T07:55:37;353.27;;;318.13;;
33254;SDS011;19623;52.482;9.762;2022-09-17T07:58:03;356.52;;;321.23;;
33254;SDS011;19623;52.482;9.762;2022-09-17T08:00:29;355.42;;;320.30;;
33254;SDS011;19623;52.482;9.762;2022-09-17T08:02:55;331.65;;;300.40;;
33254;SDS011;19623;52.482;9.762;2022-09-17T08:05:21;351.55;;;318.63;;
33254;SDS011;19623;52.482;9.762;2022-09-17T08:07:49;349.85;;;316.45;;
33254;SDS011;19623;52.482;9.762;2022-09-17T08:10:16;349.35;;;316.40;;
33254;SDS011;19623;52.482;9.762;2022-09-17T08:12:45;349.95;;;316.65;;
33254;SDS011;19623;52.482;9.762;2022-09-17T08:15:12;357.80;;;324.52;;
33254;SDS011;19623;52.482;9.762;2022-09-17T08:17:41;352.13;;;319.73;;
33254;SDS011;19623;52.482;9.762;2022-09-17T08:20:08;346.48;;;314.40;;
33254;SDS011;19623;52.482;9.762;2022-09-17T08:22:34;369.77;;;335.80;;
33254;SDS011;19623;52.482;9.762;2022-09-17T08:24:59;365.50;;;331.67;;
33254;SDS011;19623;52.482;9.762;2022-09-17T08:27:26;371.30;;;336.48;;
33254;SDS011;19623;52.482;9.762;2022-09-17T08:29:51;390.92;;;354.77;;
33254;SDS011;19623;52.482;9.762;2022-09-17T08:32:17;395.27;;;358.67;;
33254;SDS011;19623;52.482;9.762;2022-09-17T08:34:46;355.73;;;325.55;;
33254;SDS011;19623;52.482;9.762;2022-09-17T08:37:12;371.83;;;339.73;;
33254;SDS011;19623;52.482;9.762;2022-09-17T08:39:37;380.08;;;346.55;;
33254;SDS011;19623;52.482;9.762;2022-09-17T08:44:49;385.15;;;351.05;;
33254;SDS011;19623;52.482;9.762;2022-09-17T08:50:06;406.40;;;369.30;;
33254;SDS011;19623;52.482;9.762;2022-09-17T09:00:45;402.40;;;368.52;;
33254;SDS011;19623;52.482;9.762;2022-09-17T09:06:09;423.65;;;387.15;;
33254;SDS011;19623;52.482;9.762;2022-09-17T09:11:14;390.13;;;358.27;;
33254;SDS011;19623;52.482;9.762;2022-09-17T09:13:50;400.95;;;367.83;;
33254;SDS011;19623;52.482;9.762;2022-09-17T09:16:26;381.92;;;350.88;;
33254;SDS011;19623;52.482;9.762;2022-09-17T09:18:54;407.15;;;374.42;;
33254;SDS011;19623;52.482;9.762;2022-09-17T09:21:27;406.17;;;373.85;;
33254;SDS011;19623;52.482;9.762;2022-09-17T09:26:47;421.65;;;386.02;;
33254;SDS011;19623;52.482;9.762;2022-09-17T09:33:16;427.90;;;393.10;;
33254;SDS011;19623;52.482;9.762;2022-09-17T09:43:52;430.97;;;395.30;;
33254;SDS011;19623;52.482;9.762;2022-09-17T09:57:04;437.15;;;401.17;;
33254;SDS011;19623;52.482;9.762;2022-09-17T09:59:35;473.45;;;433.98;;
33254;SDS011;19623;52.482;9.762;2022-09-17T10:02:01;466.58;;;428.45;;
33254;SDS011;19623;52.482;9.762;2022-09-17T10:04:28;453.77;;;417.30;;
33254;SDS011;19623;52.482;9.762;2022-09-17T10:06:58;441.88;;;406.52;;
33254;SDS011;19623;52.482;9.762;2022-09-17T10:09:27;450.50;;;415.75;;
33254;SDS011;19623;52.482;9.762;2022-09-17T10:14:34;473.70;;;436.88;;
33254;SDS011;19623;52.482;9.762;2022-09-17T10:20:07;466.60;;;430.05;;
33254;SDS011;19623;52.482;9.762;2022-09-17T10:25:17;463.00;;;427.40;;
33254;SDS011;19623;52.482;9.762;2022-09-17T10:27:48;469.77;;;433.70;;
33254;SDS011;19623;52.482;9.762;2022-09-17T10:30:15;464.17;;;428.80;;
33254;SDS011;19623;52.482;9.762;2022-09-17T10:32:43;483.15;;;446.25;;
33254;SDS011;19623;52.482;9.762;2022-09-17T10:35:28;485.48;;;448.63;;
33254;SDS011;19623;52.482;9.762;2022-09-17T10:37:55;470.48;;;435.83;;
33254;SDS011;19623;52.482;9.762;2022-09-17T10:40:25;477.90;;;442.60;;
33254;SDS011;19623;52.482;9.762;2022-09-17T10:43:34;482.63;;;446.98;;
33254;SDS011;19623;52.482;9.762;2022-09-17T10:45:43;492.17;;;454.90;;
33254;SDS011;19623;52.482;9.762;2022-09-17T10:48:20;473.23;;;436.90;;
33254;SDS011;19623;52.482;9.762;2022-09-17T10:50:50;477.48;;;440.95;;
33254;SDS011;19623;52.482;9.762;2022-09-17T10:53:18;441.73;;;408.75;;
33254;SDS011;19623;52.482;9.762;2022-09-17T10:58:37;404.13;;;374.45;;
33254;SDS011;19623;52.482;9.762;2022-09-17T11:09:12;428.63;;;395.70;;
33254;SDS011;19623;52.482;9.762;2022-09-17T11:20:04;420.98;;;388.95;;
33254;SDS011;19623;52.482;9.762;2022-09-17T11:25:46;425.35;;;392.02;;
33254;SDS011;19623;52.482;9.762;2022-09-17T11:28:31;381.98;;;353.52;;
33254;SDS011;19623;52.482;9.762;2022-09-17T11:34:10;411.75;;;380.50;;
33254;SDS011;19623;52.482;9.762;2022-09-17T11:42:22;378.17;;;349.50;;
33254;SDS011;19623;52.482;9.762;2022-09-17T11:44:53;392.77;;;362.75;;
33254;SDS011;19623;52.482;9.762;2022-09-17T11:47:25;404.05;;;373.02;;
33254;SDS011;19623;52.482;9.762;2022-09-17T11:49:59;398.38;;;367.17;;
33254;SDS011;19623;52.482;9.762;2022-09-17T11:53:08;397.67;;;366.70;;
33254;SDS011;19623;52.482;9.762;2022-09-17T11:55:47;380.53;;;350.73;;
33254;SDS011;19623;52.482;9.762;2022-09-17T11:58:27;394.33;;;362.33;;
33254;SDS011;19623;52.482;9.762;2022-09-17T12:03:56;357.38;;;328.63;;
33254;SDS011;19623;52.482;9.762;2022-09-17T12:09:20;353.17;;;323.70;;
33254;SDS011;19623;52.482;9.762;2022-09-17T12:14:45;365.58;;;334.98;;
33254;SDS011;19623;52.482;9.762;2022-09-17T12:17:20;361.83;;;330.95;;
33254;SDS011;19623;52.482;9.762;2022-09-17T12:19:53;369.10;;;336.83;;
33254;SDS011;19623;52.482;9.762;2022-09-17T12:22:24;371.65;;;338.88;;
33254;SDS011;19623;52.482;9.762;2022-09-17T12:24:54;372.15;;;339.17;;
33254;SDS011;19623;52.482;9.762;2022-09-17T12:41:19;358.73;;;324.55;;
33254;SDS011;19623;52.482;9.762;2022-09-17T12:44:04;364.70;;;329.80;;
33254;SDS011;19623;52.482;9.762;2022-09-17T12:55:32;337.90;;;302.63;;
33254;SDS011;19623;52.482;9.762;2022-09-17T13:01:02;306.30;;;272.27;;
33254;SDS011;19623;52.482;9.762;2022-09-17T13:03:32;322.27;;;288.17;;
33254;SDS011;19623;52.482;9.762;2022-09-17T13:11:56;340.55;;;304.95;;
33254;SDS011;19623;52.482;9.762;2022-09-17T13:17:50;342.40;;;307.80;;
33254;SDS011;19623;52.482;9.762;2022-09-17T13:20:32;353.55;;;316.40;;
33254;SDS011;19623;52.482;9.762;2022-09-17T13:23:05;343.67;;;309.55;;
33254;SDS011;19623;52.482;9.762;2022-09-17T13:25:31;358.48;;;322.05;;
33254;SDS011;19623;52.482;9.762;2022-09-17T13:28:03;354.20;;;320.13;;
33254;SDS011;19623;52.482;9.762;2022-09-17T13:34:11;371.73;;;336.25;;
33254;SDS011;19623;52.482;9.762;2022-09-17T13:36:40;370.33;;;334.42;;
33254;SDS011;19623;52.482;9.762;2022-09-17T13:44:40;363.92;;;327.30;;
33254;SDS011;19623;52.482;9.762;2022-09-17T13:47:11;364.67;;;330.38;;
33254;SDS011;19623;52.482;9.762;2022-09-17T13:49:48;354.42;;;320.52;;
33254;SDS011;19623;52.482;9.762;2022-09-17T13:52:32;350.67;;;317.65;;
33254;SDS011;19623;52.482;9.762;2022-09-17T13:55:00;356.65;;;322.10;;
33254;SDS011;19623;52.482;9.762;2022-09-17T13:57:27;354.52;;;319.88;;
33254;SDS011;19623;52.482;9.762;2022-09-17T13:59:56;359.95;;;324.73;;
33254;SDS011;19623;52.482;9.762;2022-09-17T14:04:53;358.20;;;323.02;;
33254;SDS011;19623;52.482;9.762;2022-09-17T14:09:55;350.00;;;315.80;;
33254;SDS011;19623;52.482;9.762;2022-09-17T14:23:34;346.15;;;313.70;;
33254;SDS011;19623;52.482;9.762;2022-09-17T14:26:17;360.23;;;325.92;;
33254;SDS011;19623;52.482;9.762;2022-09-17T14:28:59;360.23;;;325.30;;
33254;SDS011;19623;52.482;9.762;2022-09-17T14:31:38;362.02;;;327.40;;
33254;SDS011;19623;52.482;9.762;2022-09-17T14:34:04;346.02;;;314.25;;
33254;SDS011;19623;52.482;9.762;2022-09-17T14:36:34;355.73;;;323.25;;
33254;SDS011;19623;52.482;9.762;2022-09-17T14:39:03;336.33;;;305.40;;
33254;SDS011;19623;52.482;9.762;2022-09-17T14:41:35;344.70;;;313.10;;
33254;SDS011;19623;52.482;9.762;2022-09-17T14:44:05;330.85;;;300.92;;
33254;SDS011;19623;52.482;9.762;2022-09-17T14:46:41;329.27;;;299.20;;
33254;SDS011;19623;52.482;9.762;2022-09-17T14:49:22;345.85;;;313.83;;
33254;SDS011;19623;52.482;9.762;2022-09-17T14:51:53;328.83;;;298.73;;
33254;SDS011;19623;52.482;9.762;2022-09-17T15:05:10;347.35;;;312.30;;
33254;SDS011;19623;52.482;9.762;2022-09-17T15:07:43;339.70;;;305.95;;
33254;SDS011;19623;52.482;9.762;2022-09-17T15:10:14;354.67;;;319.27;;
33254;SDS011;19623;52.482;9.762;2022-09-17T15:12:45;346.88;;;312.92;;
33254;SDS011;19623;52.482;9.762;2022-09-17T15:15:14;353.65;;;320.55;;
33254;SDS011;19623;52.482;9.762;2022-09-17T15:17:46;353.95;;;320.52;;
33254;SDS011;19623;52.482;9.762;2022-09-17T15:20:17;365.90;;;331.73;;
33254;SDS011;19623;52.482;9.762;2022-09-17T15:22:48;354.63;;;321.83;;
33254;SDS011;19623;52.482;9.762;2022-09-17T15:25:22;334.23;;;305.05;;
33254;SDS011;19623;52.482;9.762;2022-09-17T15:27:53;355.20;;;323.77;;
33254;SDS011;19623;52.482;9.762;2022-09-17T15:30:21;344.27;;;313.08;;
33254;SDS011;19623;52.482;9.762;2022-09-17T15:32:49;340.95;;;310.30;;
33254;SDS011;19623;52.482;9.762;2022-09-17T15:35:19;346.23;;;315.17;;
33254;SDS011;19623;52.482;9.762;2022-09-17T15:37:56;341.08;;;310.75;;
33254;SDS011;19623;52.482;9.762;2022-09-17T15:40:45;342.92;;;311.35;;
33254;SDS011;19623;52.482;9.762;2022-09-17T15:43:17;351.67;;;318.20;;
33254;SDS011;19623;52.482;9.762;2022-09-17T15:45:51;335.10;;;302.45;;
33254;SDS011;19623;52.482;9.762;2022-09-17T15:50:54;344.27;;;310.70;;
33254;SDS011;19623;52.482;9.762;2022-09-17T15:53:22;338.02;;;303.58;;
33254;SDS011;19623;52.482;9.762;2022-09-17T15:56:02;347.35;;;313.25;;
33254;SDS011;19623;52.482;9.762;2022-09-17T16:08:44;339.52;;;304.52;;
33254;SDS011;19623;52.482;9.762;2022-09-17T16:11:21;332.00;;;298.30;;
33254;SDS011;19623;52.482;9.762;2022-09-17T16:16:18;305.00;;;273.13;;
33254;SDS011;19623;52.482;9.762;2022-09-17T16:18:46;315.10;;;281.63;;
33254;SDS011;19623;52.482;9.762;2022-09-17T16:21:13;323.63;;;289.33;;
33254;SDS011;19623;52.482;9.762;2022-09-17T16:23:39;326.70;;;292.52;;
33254;SDS011;19623;52.482;9.762;2022-09-17T16:26:05;325.23;;;290.38;;
33254;SDS011;19623;52.482;9.762;2022-09-17T16:28:42;321.13;;;286.48;;
33254;SDS011;19623;52.482;9.762;2022-09-17T16:31:12;312.65;;;280.27;;
33254;SDS011;19623;52.482;9.762;2022-09-17T16:33:38;313.88;;;279.92;;
33254;SDS011;19623;52.482;9.762;2022-09-17T16:36:04;313.88;;;279.55;;
33254;SDS011;19623;52.482;9.762;2022-09-17T16:38:30;313.70;;;280.23;;
33254;SDS011;19623;52.482;9.762;2022-09-17T16:40:56;303.83;;;271.20;;
33254;SDS011;19623;52.482;9.762;2022-09-17T16:43:22;312.85;;;278.73;;
33254;SDS011;19623;52.482;9.762;2022-09-17T16:45:59;310.98;;;278.02;;
33254;SDS011;19623;52.482;9.762;2022-09-17T16:48:25;314.63;;;275.17;;
33254;SDS011;19623;52.482;9.762;2022-09-17T16:50:51;309.85;;;276.58;;
33254;SDS011;19623;52.482;9.762;2022-09-17T16:53:17;312.17;;;278.05;;
33254;SDS011;19623;52.482;9.762;2022-09-17T16:55:42;311.27;;;277.48;;
33254;SDS011;19623;52.482;9.762;2022-09-17T16:58:08;302.27;;;270.35;;
33254;SDS011;19623;52.482;9.762;2022-09-17T17:00:33;303.83;;;271.98;;
33254;SDS011;19623;52.482;9.762;2022-09-17T17:03:01;299.85;;;267.92;;
33254;SDS011;19623;52.482;9.762;2022-09-17T17:05:27;298.73;;;267.08;;
33254;SDS011;19623;52.482;9.762;2022-09-17T17:07:53;297.95;;;266.65;;
33254;SDS011;19623;52.482;9.762;2022-09-17T17:10:20;302.10;;;269.77;;
33254;SDS011;19623;52.482;9.762;2022-09-17T17:12:46;307.17;;;274.17;;
33254;SDS011;19623;52.482;9.762;2022-09-17T17:15:12;308.02;;;274.25;;
33254;SDS011;19623;52.482;9.762;2022-09-17T17:17:38;299.25;;;267.00;;
33254;SDS011;19623;52.482;9.762;2022-09-17T17:20:07;299.10;;;264.23;;
33254;SDS011;19623;52.482;9.762;2022-09-17T17:22:33;297.30;;;266.17;;
33254;SDS011;19623;52.482;9.762;2022-09-17T17:25:03;308.13;;;273.23;;
33254;SDS011;19623;52.482;9.762;2022-09-17T17:27:30;293.73;;;261.67;;
33254;SDS011;19623;52.482;9.762;2022-09-17T17:29:55;306.75;;;272.20;;
33254;SDS011;19623;52.482;9.762;2022-09-17T17:32:21;321.27;;;278.65;;
33254;SDS011;19623;52.482;9.762;2022-09-17T17:34:47;312.27;;;272.00;;
33254;SDS011;19623;52.482;9.762;2022-09-17T17:37:14;288.02;;;257.45;;
33254;SDS011;19623;52.482;9.762;2022-09-17T17:39:40;302.38;;;268.88;;
33254;SDS011;19623;52.482;9.762;2022-09-17T17:42:05;311.05;;;278.33;;
33254;SDS011;19623;52.482;9.762;2022-09-17T17:44:31;305.85;;;272.15;;
33254;SDS011;19623;52.482;9.762;2022-09-17T17:46:57;307.42;;;273.55;;
33254;SDS011;19623;52.482;9.762;2022-09-17T17:49:22;296.30;;;266.30;;